Time;durP1;ratioP1;P1;durP2;ratioP2;P2;SDS_P1;SDS_P2;PMS_P1;PMS_P2;Temp;Humidity;BMP_temperature;BMP_pressure;BME280_temperature;BME280_humidity;BME280_pressure;Samples;Min_cycle;Max_cycle;Signal;HPM_P1;HPM_P2
2021/12/17 00:00:50;;;;;;;22.50;11.45;;;6.10;99.90;;;;;;5049199;28;20360;-80
2021/12/17 00:03:20;;;;;;;19.60;11.40;;;6.20;99.90;;;;;;5038376;28;20237;-80
2021/12/17 00:08:35;;;;;;;18.50;12.45;;;6.40;99.90;;;;;;5027722;28;20199;-80
2021/12/17 00:11:03;;;;;;;16.88;11.20;;;6.20;99.90;;;;;;5037337;28;20223;-80
2021/12/17 00:13:30;;;;;;;18.45;11.05;;;6.30;99.90;;;;;;5037732;28;20249;-80
2021/12/17 00:15:57;;;;;;;19.48;11.23;;;6.60;99.90;;;;;;5037411;28;20306;-80
2021/12/17 00:18:30;;;;;;;17.70;10.02;;;6.60;99.90;;;;;;5037930;28;20633;-80
2021/12/17 00:48:50;;;;;;;15.73;10.55;;;6.60;99.90;;;;;;5041983;28;20202;-79
2021/12/17 00:54:18;;;;;;;22.77;14.45;;;6.60;99.90;;;;;;5037308;28;20698;-80
2021/12/17 00:56:45;;;;;;;21.33;11.88;;;6.50;99.90;;;;;;5038521;28;20191;-80
2021/12/17 00:59:12;;;;;;;17.42;11.48;;;6.50;99.90;;;;;;5037426;28;20211;-80
2021/12/17 01:01:39;;;;;;;17.15;11.50;;;6.50;99.90;;;;;;5035852;28;20222;-80
2021/12/17 01:04:06;;;;;;;21.65;12.77;;;6.70;99.90;;;;;;5037861;28;20208;-80
2021/12/17 01:06:33;;;;;;;16.20;11.65;;;6.60;99.90;;;;;;5037631;28;20214;-80
2021/12/17 01:08:59;;;;;;;17.75;11.90;;;6.80;99.90;;;;;;5053359;28;20262;-80
2021/12/17 01:11:28;;;;;;;19.20;11.52;;;6.70;99.90;;;;;;5056492;28;20297;-80
2021/12/17 01:13:55;;;;;;;18.33;12.38;;;6.60;99.90;;;;;;5040315;28;20217;-81
2021/12/17 01:16:22;;;;;;;22.58;12.98;;;6.60;99.90;;;;;;5055251;28;20270;-81
2021/12/17 01:18:59;;;;;;;25.15;12.52;;;6.70;99.90;;;;;;5049502;28;20270;-81
2021/12/17 01:21:37;;;;;;;19.90;12.05;;;6.90;99.90;;;;;;5042518;28;20234;-81
2021/12/17 01:24:32;;;;;;;19.27;12.35;;;6.70;99.90;;;;;;5046562;28;20195;-80
2021/12/17 01:35:22;;;;;;;22.08;14.20;;;6.80;99.90;;;;;;5037609;28;20337;-80
2021/12/17 01:43:33;;;;;;;21.70;12.75;;;6.60;99.90;;;;;;5036289;28;20244;-80
2021/12/17 01:46:01;;;;;;;21.50;13.55;;;6.80;99.90;;;;;;5035055;28;20202;-80
2021/12/17 01:48:37;;;;;;;20.67;14.45;;;6.30;99.90;;;;;;5037698;28;20358;-81
2021/12/17 01:56:53;;;;;;;18.20;12.75;;;6.70;99.90;;;;;;5035928;28;20236;-81
2021/12/17 01:59:24;;;;;;;19.33;14.13;;;6.80;99.90;;;;;;5038766;28;20351;-81
2021/12/17 02:02:00;;;;;;;20.35;13.10;;;6.90;99.90;;;;;;5037434;28;20325;-79
2021/12/17 02:04:27;;;;;;;18.58;12.32;;;6.70;99.90;;;;;;5037537;28;20191;-80
2021/12/17 02:06:54;;;;;;;22.42;14.10;;;6.90;99.90;;;;;;5037145;28;20249;-80
2021/12/17 02:10:06;;;;;;;21.95;13.20;;;6.90;99.90;;;;;;5036150;28;20530;-80
2021/12/17 02:12:38;;;;;;;23.73;13.75;;;6.90;99.90;;;;;;5035255;28;20216;-82
2021/12/17 02:21:07;;;;;;;20.65;14.23;;;6.90;99.90;;;;;;5064752;22;20983;-85
2021/12/17 02:29:29;;;;;;;21.08;13.05;;;6.90;99.90;;;;;;5061049;28;20282;-86
2021/12/17 02:32:00;;;;;;;17.92;11.70;;;7.00;99.90;;;;;;5061338;28;20568;-84
2021/12/17 02:34:42;;;;;;;17.50;12.00;;;7.10;99.90;;;;;;5065250;28;20219;-84
2021/12/17 02:37:15;;;;;;;19.50;13.57;;;6.70;99.90;;;;;;5064693;28;20539;-85
2021/12/17 02:40:00;;;;;;;20.42;13.60;;;6.80;99.90;;;;;;5062141;28;20199;-85
2021/12/17 02:42:49;;;;;;;19.45;13.35;;;7.00;99.90;;;;;;5059829;28;20256;-86
2021/12/17 02:45:34;;;;;;;20.02;12.38;;;7.00;99.90;;;;;;5059726;28;20189;-84
2021/12/17 02:48:08;;;;;;;19.98;14.13;;;7.10;99.90;;;;;;5059059;28;20281;-85
2021/12/17 02:50:37;;;;;;;20.75;14.60;;;7.00;99.90;;;;;;5058642;28;20222;-85
2021/12/17 02:53:08;;;;;;;19.40;13.45;;;7.20;99.90;;;;;;5059475;28;20274;-85
2021/12/17 02:55:36;;;;;;;17.27;11.15;;;6.70;99.90;;;;;;5063435;28;20609;-85
2021/12/17 02:58:05;;;;;;;19.50;12.75;;;7.10;99.90;;;;;;5058786;28;20207;-85
2021/12/17 03:00:32;;;;;;;17.98;13.32;;;7.30;99.90;;;;;;5058774;28;20222;-84
2021/12/17 03:03:00;;;;;;;24.17;12.35;;;7.20;99.90;;;;;;5070379;28;20220;-85
2021/12/17 03:05:28;;;;;;;16.58;11.82;;;6.70;99.90;;;;;;5071154;28;20261;-85
2021/12/17 03:07:56;;;;;;;16.75;12.38;;;7.00;99.90;;;;;;5059372;28;20245;-85
2021/12/17 03:10:25;;;;;;;19.85;13.88;;;6.80;99.90;;;;;;5060210;28;20206;-85
2021/12/17 03:12:57;;;;;;;24.05;14.00;;;6.90;99.90;;;;;;5059057;28;20206;-85
2021/12/17 03:15:32;;;;;;;20.58;14.70;;;7.00;99.90;;;;;;5058428;28;20187;-86
2021/12/17 03:18:34;;;;;;;19.48;14.20;;;7.20;99.90;;;;;;5068959;28;20273;-85
2021/12/17 03:23:44;;;;;;;21.50;14.95;;;7.10;99.90;;;;;;5070580;28;20237;-85
2021/12/17 03:26:14;;;;;;;19.40;14.20;;;7.10;99.90;;;;;;5061624;28;20202;-86
2021/12/17 03:28:44;;;;;;;18.77;13.07;;;7.20;99.90;;;;;;5063198;28;20671;-85
2021/12/17 03:31:12;;;;;;;21.27;12.95;;;6.90;99.90;;;;;;5070805;28;20254;-85
2021/12/17 03:33:42;;;;;;;19.75;13.90;;;7.30;99.90;;;;;;5064022;28;20212;-86
2021/12/17 03:36:09;;;;;;;20.15;13.35;;;7.40;99.90;;;;;;5062699;28;20195;-86
2021/12/17 03:38:36;;;;;;;20.73;14.48;;;7.60;99.90;;;;;;5062130;28;20218;-86
2021/12/17 03:41:15;;;;;;;21.83;13.70;;;7.20;99.90;;;;;;5061784;28;20229;-86
2021/12/17 03:43:44;;;;;;;22.17;13.48;;;7.00;99.90;;;;;;5063233;28;20648;-85
2021/12/17 03:46:11;;;;;;;22.55;15.02;;;7.00;99.90;;;;;;5064208;28;20210;-86
2021/12/17 03:48:39;;;;;;;22.35;14.77;;;7.00;99.90;;;;;;5066216;28;20580;-86
2021/12/17 03:51:12;;;;;;;19.85;14.77;;;6.90;99.90;;;;;;5063354;28;20218;-85
2021/12/17 03:53:39;;;;;;;19.90;14.68;;;7.00;99.90;;;;;;5061879;28;20277;-85
2021/12/17 03:56:07;;;;;;;20.42;13.40;;;7.00;99.90;;;;;;5061713;28;20206;-85
2021/12/17 03:58:34;;;;;;;20.40;13.98;;;6.90;99.90;;;;;;5063902;28;20604;-85
2021/12/17 04:01:03;;;;;;;18.30;13.57;;;7.30;99.90;;;;;;5063533;28;20234;-86
2021/12/17 04:03:30;;;;;;;19.15;14.00;;;6.60;99.90;;;;;;5064223;28;20564;-86
2021/12/17 04:05:56;;;;;;;20.50;13.93;;;7.00;99.90;;;;;;5063848;28;20274;-86
2021/12/17 04:08:23;;;;;;;22.30;14.15;;;7.20;99.90;;;;;;5061265;28;20206;-86
2021/12/17 04:10:53;;;;;;;18.88;13.15;;;7.00;99.90;;;;;;5062100;28;20241;-86
2021/12/17 04:13:29;;;;;;;21.73;14.98;;;7.00;99.90;;;;;;5063129;28;20210;-86
2021/12/17 04:15:59;;;;;;;19.90;13.63;;;7.10;99.90;;;;;;5062921;28;20190;-86
2021/12/17 04:18:28;;;;;;;23.25;15.07;;;7.00;99.90;;;;;;5069302;28;20190;-84
2021/12/17 04:20:55;;;;;;;20.98;14.55;;;7.10;99.90;;;;;;5075717;28;20382;-85
2021/12/17 04:23:22;;;;;;;22.50;14.48;;;6.90;99.90;;;;;;5074208;28;20244;-85
2021/12/17 04:25:50;;;;;;;20.38;13.75;;;7.00;99.90;;;;;;5068016;28;20272;-86
2021/12/17 04:28:17;;;;;;;22.25;15.25;;;6.90;99.90;;;;;;5061997;28;20202;-85
2021/12/17 04:30:45;;;;;;;20.85;14.07;;;6.70;99.90;;;;;;5061912;28;20310;-85
2021/12/17 04:33:12;;;;;;;24.02;15.65;;;6.70;99.90;;;;;;5061691;28;20206;-85
2021/12/17 04:35:41;;;;;;;20.10;13.57;;;7.00;99.90;;;;;;5062077;28;20206;-85
2021/12/17 04:38:09;;;;;;;21.10;15.38;;;6.90;99.90;;;;;;5062007;28;20562;-85
2021/12/17 04:40:39;;;;;;;22.58;14.60;;;7.00;99.90;;;;;;5069164;28;20249;-84
2021/12/17 04:43:16;;;;;;;23.65;15.25;;;6.40;99.90;;;;;;5065940;28;20753;-85
2021/12/17 04:45:49;;;;;;;23.17;15.75;;;6.90;99.90;;;;;;5067675;28;20617;-86
2021/12/17 04:59:14;;;;;;;20.40;14.43;;;7.50;99.90;;;;;;5065829;28;20193;-84
2021/12/17 05:01:41;;;;;;;20.23;14.93;;;7.30;99.90;;;;;;5065004;28;20236;-85
2021/12/17 05:04:08;;;;;;;19.58;15.05;;;7.00;99.90;;;;;;5059431;28;20408;-85
2021/12/17 05:06:36;;;;;;;21.02;15.15;;;7.10;99.90;;;;;;5061786;28;20205;-85
2021/12/17 05:09:09;;;;;;;24.88;16.10;;;6.90;99.90;;;;;;5061469;28;20695;-85
2021/12/17 05:19:51;;;;;;;21.00;15.63;;;7.20;99.90;;;;;;5062583;28;20255;-85
2021/12/17 05:22:20;;;;;;;24.25;15.27;;;7.00;99.90;;;;;;5061492;28;20605;-85
2021/12/17 05:24:47;;;;;;;21.35;13.77;;;7.60;99.90;;;;;;5063467;28;20214;-83
2021/12/17 05:27:14;;;;;;;21.45;15.02;;;7.90;99.90;;;;;;5062447;28;20209;-85
2021/12/17 05:29:41;;;;;;;22.05;14.05;;;7.70;99.90;;;;;;5060694;28;20203;-85
2021/12/17 05:32:09;;;;;;;19.27;14.60;;;7.20;99.90;;;;;;5066827;28;20313;-85
2021/12/17 05:34:36;;;;;;;20.52;14.25;;;7.80;99.90;;;;;;5075152;28;20223;-85
2021/12/17 05:37:03;;;;;;;18.10;13.55;;;7.80;99.90;;;;;;5066352;28;20755;-85
2021/12/17 05:39:31;;;;;;;19.20;13.43;;;7.80;99.90;;;;;;5059761;28;20266;-85
2021/12/17 05:41:58;;;;;;;22.08;13.95;;;7.70;99.90;;;;;;5059702;28;20227;-84
2021/12/17 05:44:25;;;;;;;21.83;14.50;;;8.10;99.90;;;;;;5059856;28;20210;-85
2021/12/17 05:46:52;;;;;;;20.98;13.45;;;8.10;99.90;;;;;;5060511;28;20207;-85
2021/12/17 05:49:21;;;;;;;21.90;15.65;;;7.80;99.90;;;;;;5059516;28;20207;-84
2021/12/17 05:51:48;;;;;;;18.35;13.05;;;7.60;99.90;;;;;;5059613;28;20231;-86
2021/12/17 05:54:16;;;;;;;19.65;14.98;;;7.70;99.90;;;;;;5059856;28;20214;-86
2021/12/17 05:56:44;;;;;;;19.80;14.27;;;7.70;99.90;;;;;;5059407;28;20222;-84
2021/12/17 05:59:11;;;;;;;21.50;14.48;;;7.30;99.90;;;;;;5060462;28;20270;-85
2021/12/17 06:01:38;;;;;;;19.65;13.05;;;7.90;99.90;;;;;;5061456;28;20679;-85
2021/12/17 06:04:05;;;;;;;16.52;13.15;;;7.40;99.90;;;;;;5060930;28;20301;-86
2021/12/17 06:06:34;;;;;;;21.25;14.77;;;7.20;99.90;;;;;;5061179;28;20224;-85
2021/12/17 06:09:04;;;;;;;19.38;13.70;;;7.70;99.90;;;;;;5065650;28;20210;-86
2021/12/17 06:11:31;;;;;;;20.02;13.30;;;7.80;99.90;;;;;;5069246;28;20207;-84
2021/12/17 06:13:59;;;;;;;19.70;12.70;;;7.80;99.90;;;;;;5064772;28;20210;-85
2021/12/17 06:16:27;;;;;;;18.20;13.10;;;7.30;99.90;;;;;;5061775;28;20233;-86
2021/12/17 06:18:54;;;;;;;21.92;13.82;;;7.60;99.90;;;;;;5066487;28;20202;-85
2021/12/17 06:21:21;;;;;;;22.52;14.30;;;7.30;99.90;;;;;;5065761;28;20712;-85
2021/12/17 06:23:47;;;;;;;19.13;13.20;;;7.50;99.90;;;;;;5060489;28;20277;-86
2021/12/17 06:26:14;;;;;;;20.48;13.98;;;7.60;99.90;;;;;;5060305;28;20305;-85
2021/12/17 06:28:41;;;;;;;18.08;12.50;;;7.60;99.90;;;;;;5066689;28;20217;-85
2021/12/17 06:31:09;;;;;;;17.88;12.60;;;7.50;99.90;;;;;;5066361;28;20226;-85
2021/12/17 06:33:36;;;;;;;15.18;11.38;;;7.50;99.90;;;;;;5065348;28;20302;-86
2021/12/17 06:36:03;;;;;;;16.35;11.55;;;7.80;99.90;;;;;;5058749;28;20221;-86
2021/12/17 06:38:30;;;;;;;23.65;12.88;;;7.70;99.90;;;;;;5066468;28;20208;-84
2021/12/17 06:40:58;;;;;;;16.13;11.48;;;7.70;99.90;;;;;;5073681;28;20294;-85
2021/12/17 06:43:32;;;;;;;14.32;9.43;;;7.80;99.90;;;;;;5061035;28;20226;-84
2021/12/17 06:46:13;;;;;;;15.30;9.73;;;7.90;99.90;;;;;;5057065;28;20655;-79
2021/12/17 06:48:41;;;;;;;20.75;13.52;;;7.80;99.90;;;;;;5056312;28;20210;-78
2021/12/17 06:59:39;;;;;;;19.55;10.30;;;7.70;99.90;;;;;;5060657;28;20241;-82
2021/12/17 07:10:36;;;;;;;15.65;9.75;;;7.70;99.90;;;;;;5061575;28;20255;-82
2021/12/17 07:21:30;;;;;;;16.85;12.45;;;7.40;99.90;;;;;;5060573;28;20597;-80
2021/12/17 07:32:41;;;;;;;15.38;10.32;;;7.50;99.90;;;;;;5068232;28;20691;-79
2021/12/17 07:35:42;;;;;;;12.57;8.77;;;7.70;99.90;;;;;;5062738;28;20203;-78
2021/12/17 07:40:55;;;;;;;13.77;10.00;;;7.70;99.90;;;;;;5072087;28;20252;-79
2021/12/17 07:43:29;;;;;;;15.32;9.13;;;7.70;99.90;;;;;;5071960;28;20226;-79
2021/12/17 07:45:57;;;;;;;17.33;10.00;;;7.80;99.90;;;;;;5071029;28;20191;-79
2021/12/17 07:48:24;;;;;;;12.75;8.50;;;7.60;99.90;;;;;;5069489;28;20686;-79
2021/12/17 07:50:51;;;;;;;16.02;9.80;;;7.50;99.90;;;;;;5064104;28;20227;-78
2021/12/17 07:53:20;;;;;;;13.95;9.68;;;7.80;99.90;;;;;;5066678;28;20203;-82
2021/12/17 07:55:47;;;;;;;13.20;8.13;;;7.80;99.90;;;;;;5059588;28;20213;-78
2021/12/17 07:58:14;;;;;;;14.75;9.65;;;7.70;99.90;;;;;;5063112;28;20199;-83
2021/12/17 08:00:42;;;;;;;14.43;9.82;;;7.70;99.90;;;;;;5064698;28;20234;-82
2021/12/17 08:03:11;;;;;;;15.45;9.40;;;7.80;99.90;;;;;;5062996;28;20661;-84
2021/12/17 08:05:38;;;;;;;13.02;8.68;;;7.80;99.90;;;;;;5064278;28;20303;-84
2021/12/17 08:08:05;;;;;;;12.45;10.07;;;7.70;99.90;;;;;;5063508;28;20234;-84
2021/12/17 08:10:33;;;;;;;11.77;7.80;;;7.60;99.90;;;;;;5064256;28;20647;-84
2021/12/17 08:13:00;;;;;;;12.02;8.57;;;7.60;99.90;;;;;;5067466;28;20276;-84
2021/12/17 08:15:32;;;;;;;11.25;7.63;;;7.40;99.90;;;;;;5062236;28;20195;-78
2021/12/17 08:18:24;;;;;;;10.75;8.02;;;7.60;99.90;;;;;;5060064;28;20227;-78
2021/12/17 08:24:13;;;;;;;12.90;8.13;;;7.60;99.90;;;;;;5058419;28;20645;-80
2021/12/17 08:26:52;;;;;;;12.50;8.20;;;7.70;99.90;;;;;;5058134;28;20207;-80
2021/12/17 08:29:27;;;;;;;11.40;7.10;;;7.60;99.90;;;;;;5063007;28;20195;-85
2021/12/17 08:31:54;;;;;;;12.30;8.18;;;7.80;99.90;;;;;;5064575;28;20607;-86
2021/12/17 08:34:22;;;;;;;12.95;7.97;;;7.50;99.90;;;;;;5070943;28;20213;-84
2021/12/17 08:36:49;;;;;;;11.65;8.63;;;7.20;99.90;;;;;;5086674;22;20341;-81
2021/12/17 08:39:15;;;;;;;12.60;8.20;;;7.50;99.90;;;;;;5058877;28;20312;-79
2021/12/17 08:41:44;;;;;;;11.57;8.38;;;7.50;99.90;;;;;;5057521;28;20243;-80
2021/12/17 08:44:11;;;;;;;10.77;7.75;;;7.40;99.90;;;;;;5057882;28;20245;-79
2021/12/17 08:46:38;;;;;;;10.57;7.03;;;7.40;99.90;;;;;;5058640;28;20558;-80
2021/12/17 08:49:06;;;;;;;13.07;8.23;;;7.70;99.90;;;;;;5058281;28;20208;-80
2021/12/17 08:51:34;;;;;;;9.55;6.28;;;7.70;99.90;;;;;;5057789;28;20272;-80
2021/12/17 08:54:00;;;;;;;10.05;6.82;;;7.50;99.90;;;;;;5059181;28;20213;-80
2021/12/17 08:56:29;;;;;;;12.07;7.40;;;7.60;99.90;;;;;;5057998;28;20211;-80
2021/12/17 08:59:01;;;;;;;13.93;7.72;;;7.50;99.90;;;;;;5057770;28;20658;-80
2021/12/17 09:01:28;;;;;;;8.15;5.68;;;7.60;99.90;;;;;;5057781;28;20198;-80
2021/12/17 09:03:54;;;;;;;8.73;6.03;;;7.70;99.90;;;;;;5057194;28;20214;-80
2021/12/17 09:06:24;;;;;;;9.98;5.55;;;7.60;99.90;;;;;;5058211;28;20578;-80
2021/12/17 09:08:54;;;;;;;8.65;5.53;;;7.40;99.90;;;;;;5057863;28;20232;-80
2021/12/17 09:11:21;;;;;;;8.68;6.30;;;7.60;99.90;;;;;;5058122;28;20229;-80
2021/12/17 09:13:48;;;;;;;8.82;5.88;;;7.60;99.90;;;;;;5057725;28;20213;-80
2021/12/17 09:16:16;;;;;;;9.77;7.55;;;7.60;99.90;;;;;;5059122;28;20226;-81
2021/12/17 09:18:45;;;;;;;8.80;6.10;;;7.50;99.90;;;;;;5057978;28;20583;-81
2021/12/17 09:21:11;;;;;;;9.60;6.68;;;7.40;99.90;;;;;;5057370;28;20265;-80
2021/12/17 09:23:39;;;;;;;8.15;5.65;;;7.50;99.90;;;;;;5056131;28;20593;-80
2021/12/17 09:26:05;;;;;;;8.02;5.63;;;7.40;99.90;;;;;;5058202;28;20229;-80
2021/12/17 09:28:33;;;;;;;11.05;6.32;;;7.60;99.90;;;;;;5058965;28;20230;-80
2021/12/17 09:31:00;;;;;;;9.30;6.47;;;8.00;99.90;;;;;;5063762;28;20239;-80
2021/12/17 09:33:28;;;;;;;10.05;7.35;;;7.90;99.90;;;;;;5060924;28;20637;-80
2021/12/17 09:35:55;;;;;;;10.05;6.50;;;8.10;99.90;;;;;;5058890;28;20554;-80
2021/12/17 09:38:22;;;;;;;11.00;7.25;;;7.80;99.90;;;;;;5058273;28;20230;-81
2021/12/17 09:40:50;;;;;;;11.55;8.18;;;7.70;99.90;;;;;;5058937;28;20210;-80
2021/12/17 09:43:17;;;;;;;11.07;7.93;;;7.70;99.90;;;;;;5061651;28;20261;-80
2021/12/17 09:45:44;;;;;;;12.02;7.93;;;7.90;99.90;;;;;;5064460;28;20238;-80
2021/12/17 09:48:14;;;;;;;12.00;8.48;;;7.80;99.90;;;;;;5060195;28;20334;-81
2021/12/17 09:50:42;;;;;;;10.85;7.55;;;7.70;99.90;;;;;;5057573;28;20643;-81
2021/12/17 09:53:09;;;;;;;11.45;7.97;;;7.70;99.90;;;;;;5058014;28;20207;-81
2021/12/17 09:55:36;;;;;;;12.73;8.38;;;7.90;99.90;;;;;;5058228;28;20222;-81
2021/12/17 09:58:04;;;;;;;18.13;8.07;;;8.00;99.90;;;;;;5059301;28;20265;-81
2021/12/17 10:00:31;;;;;;;10.63;7.47;;;7.90;99.90;;;;;;5067640;28;20201;-80
2021/12/17 10:02:58;;;;;;;11.10;7.65;;;8.10;99.90;;;;;;5073541;28;20225;-80
2021/12/17 10:05:28;;;;;;;9.98;7.18;;;8.00;99.90;;;;;;5068030;28;20270;-81
2021/12/17 10:07:57;;;;;;;9.43;7.38;;;7.90;99.90;;;;;;5069838;28;20287;-80
2021/12/17 10:10:33;;;;;;;13.27;8.15;;;8.00;99.90;;;;;;5068859;28;20286;-80
2021/12/17 10:13:08;;;;;;;10.00;7.25;;;8.30;99.90;;;;;;5067946;28;20251;-80
2021/12/17 10:15:37;;;;;;;9.93;6.95;;;8.20;99.90;;;;;;5061991;28;20272;-81
2021/12/17 10:18:04;;;;;;;11.55;7.28;;;8.30;99.90;;;;;;5058837;28;20234;-81
2021/12/17 10:20:33;;;;;;;8.65;7.57;;;8.20;99.90;;;;;;5059303;28;20298;-81
2021/12/17 10:23:05;;;;;;;10.45;7.88;;;8.30;99.90;;;;;;5059832;28;20231;-80
2021/12/17 10:25:33;;;;;;;8.35;6.00;;;8.20;99.90;;;;;;5057552;28;20192;-80
2021/12/17 10:28:03;;;;;;;10.85;7.03;;;8.40;99.90;;;;;;5057684;28;20228;-80
2021/12/17 10:30:32;;;;;;;9.07;6.63;;;8.60;99.90;;;;;;5058106;28;20217;-82
2021/12/17 10:33:00;;;;;;;9.07;6.30;;;8.50;99.90;;;;;;5057514;28;20203;-82
2021/12/17 10:35:30;;;;;;;9.85;6.88;;;8.40;99.90;;;;;;5061287;28;20215;-83
2021/12/17 10:38:02;;;;;;;8.75;5.75;;;8.30;99.90;;;;;;5066255;28;20273;-83
2021/12/17 10:40:34;;;;;;;9.30;6.80;;;8.30;99.90;;;;;;5066638;28;20199;-81
2021/12/17 10:43:06;;;;;;;10.95;7.40;;;8.50;99.90;;;;;;5066422;28;20210;-81
2021/12/17 10:45:38;;;;;;;8.80;5.45;;;8.50;99.90;;;;;;5064750;28;20187;-82
2021/12/17 10:51:17;;;;;;;9.57;5.97;;;8.50;99.90;;;;;;5066104;28;20258;-81
2021/12/17 10:53:53;;;;;;;11.05;7.45;;;8.10;99.90;;;;;;5065829;28;20281;-81
2021/12/17 10:56:26;;;;;;;14.13;6.93;;;8.00;99.90;;;;;;5064523;28;20253;-83
2021/12/17 10:58:59;;;;;;;13.00;8.88;;;8.70;99.90;;;;;;5062378;28;20278;-81
2021/12/17 11:01:35;;;;;;;10.70;7.85;;;8.50;99.90;;;;;;5061018;28;20191;-83
2021/12/17 11:04:08;;;;;;;12.00;8.60;;;8.50;99.90;;;;;;5061146;28;20207;-82
2021/12/17 11:06:55;;;;;;;11.50;8.13;;;8.50;99.90;;;;;;5061184;28;20208;-81
2021/12/17 11:09:34;;;;;;;15.88;8.35;;;8.70;99.90;;;;;;5062926;28;20201;-82
2021/12/17 11:12:07;;;;;;;11.88;7.20;;;8.70;99.90;;;;;;5057992;28;20242;-78
2021/12/17 11:14:34;;;;;;;11.32;7.95;;;8.40;99.90;;;;;;5065359;28;20194;-78
2021/12/17 11:17:02;;;;;;;13.80;10.05;;;8.50;99.90;;;;;;5063689;28;20237;-78
2021/12/17 11:19:31;;;;;;;12.00;8.93;;;8.40;99.90;;;;;;5069226;28;20203;-79
2021/12/17 11:21:58;;;;;;;15.93;9.15;;;8.60;99.90;;;;;;5068624;28;20260;-79
2021/12/17 11:24:26;;;;;;;12.43;6.68;;;8.70;99.90;;;;;;5065127;28;20220;-80
2021/12/17 11:26:54;;;;;;;11.70;8.38;;;8.60;99.90;;;;;;5058569;28;20235;-80
2021/12/17 11:29:23;;;;;;;13.30;9.27;;;8.60;99.90;;;;;;5059539;28;20746;-80
2021/12/17 11:31:51;;;;;;;10.52;6.88;;;8.10;99.90;;;;;;5059237;28;20212;-80
2021/12/17 11:34:19;;;;;;;11.68;9.10;;;8.60;99.90;;;;;;5059564;28;20195;-81
2021/12/17 11:36:46;;;;;;;12.20;9.05;;;8.50;99.90;;;;;;5059799;28;20247;-81
2021/12/17 11:39:22;;;;;;;14.48;10.25;;;8.60;99.90;;;;;;5066453;28;20266;-80
2021/12/17 11:42:04;;;;;;;11.63;8.40;;;8.40;99.90;;;;;;5063009;28;20194;-82
2021/12/17 11:44:41;;;;;;;9.00;6.05;;;8.20;99.90;;;;;;5061443;28;20211;-82
2021/12/17 11:47:10;;;;;;;13.43;9.05;;;8.40;99.90;;;;;;5071512;28;20237;-81
2021/12/17 11:49:39;;;;;;;14.32;9.68;;;8.40;99.90;;;;;;5069001;28;20214;-82
2021/12/17 11:52:07;;;;;;;13.13;8.60;;;8.40;99.90;;;;;;5061765;28;20261;-80
2021/12/17 11:54:35;;;;;;;12.30;9.15;;;8.40;99.90;;;;;;5059228;28;20290;-79
2021/12/17 11:57:07;;;;;;;12.20;8.68;;;8.60;99.90;;;;;;5058998;28;20223;-79
2021/12/17 11:59:42;;;;;;;14.38;8.00;;;8.70;99.90;;;;;;5064100;28;20245;-80
2021/12/17 12:02:19;;;;;;;11.20;7.80;;;8.60;99.90;;;;;;5061563;28;20206;-79
2021/12/17 12:04:52;;;;;;;12.13;7.30;;;8.80;99.90;;;;;;5059348;28;20302;-79
2021/12/17 12:07:21;;;;;;;13.13;9.45;;;8.80;99.90;;;;;;5058416;28;20270;-79
2021/12/17 12:09:57;;;;;;;13.00;7.85;;;8.80;99.90;;;;;;5058554;28;20584;-79
2021/12/17 12:12:51;;;;;;;11.48;7.28;;;8.70;99.90;;;;;;5058075;28;20190;-79
2021/12/17 12:15:32;;;;;;;13.05;9.15;;;8.60;99.90;;;;;;5058133;28;20297;-79
2021/12/17 12:18:08;;;;;;;12.75;7.82;;;8.20;99.90;;;;;;5059251;28;20325;-79
2021/12/17 12:20:40;;;;;;;12.77;9.20;;;8.60;99.90;;;;;;5058962;28;20200;-79
2021/12/17 12:23:17;;;;;;;12.40;8.00;;;8.70;99.90;;;;;;5058088;28;20213;-79
2021/12/17 12:25:45;;;;;;;10.30;8.40;;;8.70;99.90;;;;;;5055938;28;20247;-79
2021/12/17 12:28:15;;;;;;;11.85;7.72;;;8.70;99.90;;;;;;5057737;28;20591;-79
2021/12/17 12:30:45;;;;;;;11.32;7.22;;;8.90;99.90;;;;;;5057452;28;20206;-80
2021/12/17 12:33:15;;;;;;;9.32;6.85;;;9.00;99.90;;;;;;5056700;28;20227;-79
2021/12/17 12:35:57;;;;;;;14.00;7.70;;;8.90;99.90;;;;;;5058996;28;20223;-79
2021/12/17 12:38:31;;;;;;;11.57;8.07;;;9.00;99.90;;;;;;5057992;28;20235;-78
2021/12/17 12:41:01;;;;;;;9.48;6.93;;;8.90;99.90;;;;;;5057449;28;20564;-79
2021/12/17 12:43:29;;;;;;;13.95;7.95;;;8.90;99.90;;;;;;5057383;28;20336;-79
2021/12/17 12:45:58;;;;;;;12.27;6.80;;;8.60;99.90;;;;;;5058837;28;20298;-78
2021/12/17 12:48:30;;;;;;;11.35;7.65;;;8.90;99.90;;;;;;5056410;28;20226;-78
2021/12/17 12:51:15;;;;;;;12.25;7.97;;;9.00;99.90;;;;;;5055868;28;20218;-78
2021/12/17 12:53:47;;;;;;;10.20;6.40;;;9.10;99.90;;;;;;5055959;28;20214;-78
2021/12/17 12:56:19;;;;;;;9.55;6.45;;;9.20;99.90;;;;;;5057959;28;20208;-78
2021/12/17 12:58:50;;;;;;;10.15;7.72;;;9.20;99.90;;;;;;5065974;28;20261;-77
2021/12/17 13:01:21;;;;;;;10.73;7.05;;;9.30;99.90;;;;;;5063651;28;20216;-77
2021/12/17 13:03:49;;;;;;;10.63;7.63;;;9.20;99.90;;;;;;5064317;28;20299;-78
2021/12/17 13:06:17;;;;;;;11.38;6.88;;;9.10;99.90;;;;;;5066944;28;20660;-78
2021/12/17 13:08:52;;;;;;;10.80;7.47;;;9.00;99.90;;;;;;5063583;28;20579;-78
2021/12/17 13:11:20;;;;;;;12.63;7.20;;;9.00;99.90;;;;;;5063008;28;20194;-78
2021/12/17 13:13:52;;;;;;;10.43;7.50;;;9.10;99.90;;;;;;5063128;28;20270;-78
2021/12/17 13:16:34;;;;;;;8.88;6.47;;;9.10;99.90;;;;;;5064734;28;20192;-78
2021/12/17 13:22:00;;;;;;;12.43;8.00;;;9.30;99.90;;;;;;5055682;28;20644;-79
2021/12/17 13:24:28;;;;;;;12.43;8.63;;;9.30;99.90;;;;;;5056234;28;20261;-78
2021/12/17 13:26:58;;;;;;;11.43;7.70;;;9.60;99.90;;;;;;5056747;28;20242;-78
2021/12/17 13:29:30;;;;;;;10.95;6.05;;;9.50;99.90;;;;;;5056554;28;20219;-80
2021/12/17 13:32:01;;;;;;;14.07;7.53;;;9.60;99.90;;;;;;5059484;28;20246;-83
2021/12/17 13:34:30;;;;;;;11.60;7.97;;;9.50;99.90;;;;;;5064925;28;20371;-82
2021/12/17 13:37:00;;;;;;;11.18;7.18;;;9.50;99.90;;;;;;5059375;28;20257;-82
2021/12/17 13:39:30;;;;;;;12.20;8.52;;;9.40;99.90;;;;;;5058634;28;20222;-82
2021/12/17 13:41:57;;;;;;;11.68;7.95;;;9.30;99.90;;;;;;5057071;28;20196;-83
2021/12/17 13:44:45;;;;;;;12.20;8.43;;;9.20;99.90;;;;;;5057699;28;20227;-82
2021/12/17 13:47:28;;;;;;;13.40;8.07;;;9.30;99.90;;;;;;5057956;28;20748;-81
2021/12/17 13:50:05;;;;;;;11.50;7.82;;;9.30;99.90;;;;;;5061887;28;20274;-82
2021/12/17 13:52:36;;;;;;;12.32;8.18;;;9.30;99.90;;;;;;5059973;28;20237;-81
2021/12/17 13:55:07;;;;;;;11.23;7.40;;;9.40;99.90;;;;;;5058375;28;20215;-81
2021/12/17 13:57:34;;;;;;;12.35;7.80;;;9.50;99.90;;;;;;5057285;28;20305;-81
2021/12/17 14:00:14;;;;;;;10.38;6.85;;;9.50;99.90;;;;;;5057809;28;20212;-82
2021/12/17 14:02:44;;;;;;;11.60;8.20;;;9.40;99.90;;;;;;5065383;28;20273;-81
2021/12/17 14:05:15;;;;;;;12.70;7.93;;;9.40;99.90;;;;;;5062258;28;20220;-82
2021/12/17 14:07:42;;;;;;;9.63;6.95;;;9.50;99.90;;;;;;5059356;28;20311;-82
2021/12/17 14:10:12;;;;;;;11.90;8.60;;;9.70;99.90;;;;;;5057730;28;20303;-79
2021/12/17 14:12:41;;;;;;;10.15;6.30;;;9.70;99.90;;;;;;5057722;28;20196;-78
2021/12/17 14:15:11;;;;;;;14.18;7.90;;;9.70;99.90;;;;;;5055225;28;20213;-79
2021/12/17 14:17:40;;;;;;;13.10;7.95;;;9.70;99.90;;;;;;5056029;28;20316;-79
2021/12/17 14:20:12;;;;;;;10.68;7.78;;;9.60;99.90;;;;;;5054776;28;20219;-78
2021/12/17 14:22:40;;;;;;;12.45;9.02;;;9.60;99.90;;;;;;5054702;28;20275;-80
2021/12/17 14:25:39;;;;;;;9.77;7.30;;;9.50;99.90;;;;;;5055862;28;20469;-82
2021/12/17 14:28:14;;;;;;;13.07;7.55;;;9.60;99.90;;;;;;5058322;28;20281;-82
2021/12/17 14:30:44;;;;;;;11.98;6.45;;;9.70;99.90;;;;;;5061904;28;20206;-82
2021/12/17 14:33:13;;;;;;;12.10;8.48;;;9.70;99.90;;;;;;5060043;28;20196;-82
2021/12/17 14:35:54;;;;;;;12.60;7.50;;;9.50;99.90;;;;;;5059658;28;20222;-82
2021/12/17 14:38:23;;;;;;;12.48;8.27;;;9.50;99.90;;;;;;5091208;22;20219;-84
2021/12/17 14:40:55;;;;;;;13.68;8.77;;;9.50;99.90;;;;;;5071106;28;20255;-85
2021/12/17 14:43:24;;;;;;;12.45;6.85;;;9.40;99.90;;;;;;5060321;28;20202;-85
2021/12/17 14:46:02;;;;;;;11.77;7.15;;;9.20;99.90;;;;;;5059752;28;20321;-85
2021/12/17 14:48:38;;;;;;;15.90;9.40;;;9.10;99.90;;;;;;5059912;28;20227;-85
2021/12/17 15:05:09;;;;;;;16.02;11.07;;;9.00;99.90;;;;;;5060416;28;20217;-85
2021/12/17 15:07:37;;;;;;;16.20;10.40;;;9.00;99.90;;;;;;5064279;28;20231;-86
2021/12/17 15:10:07;;;;;;;16.85;10.93;;;9.10;99.90;;;;;;5069398;28;20577;-84
2021/12/17 15:12:38;;;;;;;10.85;6.20;;;8.90;99.90;;;;;;5062344;28;20294;-85
2021/12/17 15:15:12;;;;;;;15.85;10.55;;;8.90;99.90;;;;;;5061738;28;20188;-86
2021/12/17 15:17:40;;;;;;;20.55;11.15;;;8.70;99.90;;;;;;5066415;28;20300;-84
2021/12/17 15:20:09;;;;;;;14.48;11.05;;;8.70;99.90;;;;;;5065511;28;20226;-83
2021/12/17 15:22:38;;;;;;;15.68;11.20;;;8.80;99.90;;;;;;5068328;28;20242;-85
2021/12/17 15:25:08;;;;;;;14.88;11.50;;;8.80;99.90;;;;;;5066540;28;20310;-85
2021/12/17 15:27:35;;;;;;;18.10;11.65;;;8.90;99.90;;;;;;5065703;28;20227;-84